Time,TemperatureF,DewpointF,PressureIn,WindDirection,WindDirectionDegrees,WindSpeedMPH,WindSpeedGustMPH,Humidity,HourlyPrecipIn,Conditions,Clouds,dailyrainin,SolarRadiationWatts/m^2,SoftwareType,DateUTC
2013-01-06 14:33:00,34.0,6.0,-100.00,ENE,66,3.0,5.0,30,-99.99,,,-99.99,241.100006,,2013-01-06 21:33:00,
2013-01-06 14:42:00,34.0,6.0,-100.00,ENE,66,3.0,5.0,30,-99.99,,,-99.99,241.100006,,2013-01-06 21:42:00,
2013-01-06 14:52:00,29.0,13.0,-100.00,SW,222,1.0,9.0,48,-99.99,,,-99.99,160.300003,,2013-01-06 21:52:00,
2013-01-06 15:02:00,32.0,10.0,-100.00,WSW,249,0.0,2.0,38,-99.99,,,-99.99,169.800003,,2013-01-06 22:02:00,
2013-01-06 15:12:00,35.0,7.0,-100.00,North,0,0.0,1.0,30,-99.99,,,-99.99,187.199997,,2013-01-06 22:12:00,
2013-01-06 15:22:00,36.0,9.0,-100.00,South,190,2.0,3.0,32,-99.99,,,-99.99,149.699997,,2013-01-06 22:22:00,
2013-01-06 15:32:00,36.0,9.0,-100.00,South,190,2.0,3.0,32,-99.99,,,-99.99,149.699997,,2013-01-06 22:32:00,
2013-01-06 15:42:00,33.0,10.0,-100.00,ENE,65,4.0,5.0,36,-99.99,,,-99.99,132.500000,,2013-01-06 22:42:00,
2013-01-06 15:52:00,33.0,9.0,-100.00,ENE,63,6.0,7.0,35,-99.99,,,-99.99,170.199997,,2013-01-06 22:52:00,
2013-01-06 16:02:00,33.0,9.0,-100.00,ENE,75,6.0,8.0,36,-99.99,,,-99.99,147.899994,,2013-01-06 23:02:00,
2013-01-06 16:32:00,34.0,6.0,-100.00,ENE,77,6.0,7.0,30,-99.99,,,-99.99,144.000000,,2013-01-06 23:32:00,
2013-01-06 16:42:00,33.0,5.0,-100.00,ENE,78,5.0,6.0,30,-99.99,,,-99.99,129.399994,,2013-01-06 23:42:00,
2013-01-06 16:52:00,34.0,6.0,-100.00,East,84,4.0,6.0,30,-99.99,,,-99.99,187.100006,,2013-01-06 23:52:00,
2013-01-06 17:02:00,34.0,6.0,-100.00,East,84,4.0,6.0,30,-99.99,,,-99.99,187.100006,,2013-01-07 00:02:00,
2013-01-06 17:12:00,32.0,7.0,-100.00,ENE,77,6.0,6.0,34,-99.99,,,-99.99,79.050003,,2013-01-07 00:12:00,
2013-01-06 17:22:00,32.0,7.0,-100.00,ENE,77,6.0,6.0,34,-99.99,,,-99.99,79.050003,,2013-01-07 00:22:00,
2013-01-06 17:32:00,29.0,9.0,-100.00,ENE,61,6.0,6.0,42,-99.99,,,-99.99,7.620000,,2013-01-07 00:32:00,
2013-01-06 17:42:00,29.0,6.0,-100.00,ENE,65,7.0,7.0,37,-99.99,,,-99.99,3.610000,,2013-01-07 00:42:00,
2013-01-06 17:52:00,28.0,7.0,-100.00,NE,52,5.0,7.0,40,-99.99,,,-99.99,1.410000,,2013-01-07 00:52:00,
2013-01-06 18:02:00,29.0,6.0,-100.00,ENE,72,6.0,8.0,36,-99.99,,,-99.99,0.380000,,2013-01-07 01:02:00,
2013-01-06 18:12:00,27.0,7.0,-100.00,ENE,58,6.0,7.0,43,-99.99,,,-99.99,0.200000,,2013-01-07 01:12:00,
2013-01-06 18:22:00,28.0,7.0,-100.00,NE,48,7.0,7.0,41,-99.99,,,-99.99,0.200000,,2013-01-07 01:22:00,
2013-01-06 18:32:00,27.0,7.0,-100.00,NE,55,7.0,7.0,41,-99.99,,,-99.99,0.190000,,2013-01-07 01:32:00,
2013-01-06 18:42:00,27.0,6.0,-100.00,ENE,64,5.0,8.0,40,-99.99,,,-99.99,0.170000,,2013-01-07 01:42:00,
2013-01-06 18:52:00,25.0,7.0,-100.00,ENE,67,6.0,6.0,45,-99.99,,,-99.99,0.100000,,2013-01-07 01:52:00,
2013-01-06 19:01:00,26.0,7.0,-100.00,NE,46,4.0,5.0,43,-99.99,,,-99.99,0.030000,,2013-01-07 02:01:00,
2013-01-06 19:12:00,28.0,6.0,-100.00,ENE,59,4.0,5.0,39,-99.99,,,-99.99,0.010000,,2013-01-07 02:12:00,
2013-01-06 19:22:00,26.0,7.0,-100.00,ENE,61,4.0,5.0,43,-99.99,,,-99.99,0.010000,,2013-01-07 02:22:00,
2013-01-06 19:32:00,26.0,8.0,-100.00,NE,48,4.0,4.0,46,-99.99,,,-99.99,0.000000,,2013-01-07 02:32:00,
2013-01-06 19:42:00,26.0,8.0,-100.00,NE,52,4.0,5.0,44,-99.99,,,-99.99,0.000000,,2013-01-07 02:42:00,
2013-01-06 19:52:00,25.0,8.0,-100.00,ENE,59,5.0,5.0,46,-99.99,,,-99.99,0.000000,,2013-01-07 02:52:00,
2013-01-06 20:02:00,26.0,6.0,-100.00,ENE,63,5.0,5.0,42,-99.99,,,-99.99,0.000000,,2013-01-07 03:02:00,
2013-01-06 20:12:00,25.0,6.0,-100.00,NE,55,5.0,5.0,42,-99.99,,,-99.99,0.000000,,2013-01-07 03:12:00,
2013-01-06 20:32:00,25.0,6.0,-100.00,NE,44,3.0,4.0,42,-99.99,,,-99.99,0.000000,,2013-01-07 03:32:00,
2013-01-06 20:42:00,24.0,5.0,-100.00,SSW,208,4.0,5.0,44,-99.99,,,-99.99,0.000000,,2013-01-07 03:42:00,
2013-01-06 20:52:00,23.0,7.0,-100.00,West,270,2.0,4.0,50,-99.99,,,-99.99,0.000000,,2013-01-07 03:52:00,
2013-01-06 21:02:00,22.0,7.0,-100.00,SW,229,3.0,5.0,50,-99.99,,,-99.99,0.000000,,2013-01-07 04:02:00,
2013-01-06 21:12:00,21.0,6.0,-100.00,WSW,252,4.0,5.0,51,-99.99,,,-99.99,0.000000,,2013-01-07 04:12:00,
2013-01-06 21:22:00,24.0,4.0,-100.00,WNW,292,6.0,7.0,41,-99.99,,,-99.99,0.000000,,2013-01-07 04:22:00,
2013-01-06 21:32:00,25.0,3.0,-100.00,West,270,2.0,5.0,38,-99.99,,,-99.99,0.000000,,2013-01-07 04:32:00,
2013-01-06 21:42:00,25.0,2.0,-100.00,SW,221,2.0,4.0,35,-99.99,,,-99.99,0.000000,,2013-01-07 04:42:00,
2013-01-06 21:52:00,22.0,4.0,-100.00,NE,56,6.0,6.0,45,-99.99,,,-99.99,0.000000,,2013-01-07 04:52:00,
2013-01-06 22:02:00,22.0,4.0,-100.00,NE,43,3.0,6.0,45,-99.99,,,-99.99,0.000000,,2013-01-07 05:02:00,
2013-01-06 22:12:00,23.0,5.0,-100.00,NNW,328,0.0,3.0,45,-99.99,,,-99.99,0.000000,,2013-01-07 05:12:00,
2013-01-06 22:22:00,22.0,5.0,-100.00,WSW,240,1.0,2.0,47,-99.99,,,-99.99,0.000000,,2013-01-07 05:22:00,
2013-01-06 22:32:00,22.0,5.0,-100.00,WSW,240,1.0,2.0,47,-99.99,,,-99.99,0.000000,,2013-01-07 05:32:00,
2013-01-06 22:42:00,22.0,4.0,-100.00,West,270,2.0,4.0,45,-99.99,,,-99.99,0.000000,,2013-01-07 05:42:00,
2013-01-06 22:52:00,23.0,3.0,-100.00,NW,305,3.0,4.0,41,-99.99,,,-99.99,0.000000,,2013-01-07 05:52:00,
2013-01-06 23:22:00,22.0,3.0,-100.00,NE,40,3.0,5.0,44,-99.99,,,-99.99,0.000000,,2013-01-07 06:22:00,
2013-01-06 23:32:00,22.0,3.0,-100.00,NE,40,3.0,5.0,44,-99.99,,,-99.99,0.000000,,2013-01-07 06:32:00,
2013-01-06 23:42:00,20.0,4.0,-100.00,NE,50,6.0,7.0,49,-99.99,,,-99.99,0.000000,,2013-01-07 06:42:00,